Aransas Pass, Texas
Current Conditions -  °F | °C
As of 9:55 AM on Sunday 23 Nov 2014 (Local Time) from KTFP Reporting Station
Clear Clear  
Wind Chill: 67°   Ceiling: Unl
Heat Index: 67°   Visibility: 10mi
Dew Point: 58°   Wind: 9mph
Humidity: 74%   Direction: 220°SW
Pressure: 29.76"   Gusts: NA
Location:  27.9°N, 97.15°W
Report Text: KTFP 231555Z AUTO 22008KT 10SM CLR 19/15 A2976 RMK AO2 T01920145
Loading
Personal Weather Stations






























Interactive Weather Map New forecast layout! Learn more

10-Day Weather Forecast

Advertisements
Track Severe Weather on mobile